createdAt,value
2019-05-17T00:00:57.156Z,47.33
2019-05-17T00:01:58.276Z,47.37
2019-05-17T00:03:01.525Z,47.29
2019-05-17T00:04:04.283Z,47.25
2019-05-17T00:05:07.609Z,47.27
2019-05-17T00:06:10.428Z,47.25
2019-05-17T00:07:13.591Z,47.27
2019-05-17T00:08:20.356Z,47.26
2019-05-17T00:09:21.209Z,47.28
2019-05-17T00:10:26.368Z,47.23
2019-05-17T00:11:28.867Z,47.27
2019-05-17T00:12:31.661Z,47.24
2019-05-17T00:13:34.782Z,47.20
2019-05-17T00:14:37.643Z,47.18
2019-05-17T00:15:40.794Z,47.20
2019-05-17T00:16:43.565Z,47.21
2019-05-17T00:17:47.058Z,47.21
2019-05-17T00:18:50.035Z,47.23
2019-05-17T00:19:53.145Z,47.24
2019-05-17T00:20:57.010Z,47.25
2019-05-17T00:22:00.318Z,47.24
2019-05-17T00:23:03.073Z,47.24
2019-05-17T00:24:06.647Z,47.26
2019-05-17T00:25:09.834Z,47.26
2019-05-17T00:26:12.957Z,47.27
2019-05-17T00:27:17.246Z,47.22
2019-05-17T00:28:20.584Z,47.21
2019-05-17T00:29:23.338Z,47.28
2019-05-17T00:30:26.685Z,47.27
2019-05-17T00:31:29.532Z,47.25
2019-05-17T00:32:32.731Z,47.23
2019-05-17T00:33:36.639Z,47.21
2019-05-17T00:34:40.012Z,47.23
2019-05-17T00:35:42.800Z,47.25
2019-05-17T00:36:46.957Z,47.21
2019-05-17T00:37:49.916Z,47.19
2019-05-17T00:38:53.207Z,47.20
2019-05-17T00:39:56.726Z,47.19
2019-05-17T00:40:59.942Z,47.17
2019-05-17T00:42:02.778Z,47.18
2019-05-17T00:43:06.677Z,47.18
2019-05-17T00:44:09.824Z,47.20
2019-05-17T00:45:13.170Z,47.25
2019-05-17T00:46:17.229Z,47.26
2019-05-17T00:47:20.565Z,47.24
2019-05-17T00:48:23.379Z,47.28
2019-05-17T00:49:26.521Z,47.27
2019-05-17T00:50:29.301Z,47.22
2019-05-17T00:51:32.435Z,47.25
2019-05-17T00:52:36.868Z,47.20
2019-05-17T00:53:40.011Z,47.18
2019-05-17T00:54:42.770Z,47.19
2019-05-17T00:55:46.635Z,47.17
2019-05-17T00:56:49.575Z,47.19
2019-05-17T00:57:56.456Z,47.20
2019-05-17T00:58:57.155Z,47.19
2019-05-17T01:00:00.364Z,47.17
2019-05-17T01:01:03.124Z,47.18
2019-05-17T01:02:06.997Z,47.17
2019-05-17T01:03:09.844Z,47.19
2019-05-17T01:04:13.089Z,47.16
2019-05-17T01:05:17.216Z,47.16
2019-05-17T01:06:20.463Z,47.13
2019-05-17T01:07:23.155Z,47.14
2019-05-17T01:08:26.674Z,47.16
2019-05-17T01:09:29.584Z,47.15
2019-05-17T01:10:32.717Z,47.16
2019-05-17T01:11:36.567Z,47.14
2019-05-17T01:12:39.811Z,47.15
2019-05-17T01:13:42.581Z,47.13
2019-05-17T01:14:46.663Z,47.12
2019-05-17T01:15:49.530Z,47.13
2019-05-17T01:16:52.656Z,47.15
2019-05-17T01:17:56.316Z,47.13
2019-05-17T01:18:59.583Z,47.11
2019-05-17T01:20:02.522Z,47.12
2019-05-17T01:21:06.609Z,47.14
2019-05-17T01:22:09.398Z,47.09
2019-05-17T01:23:12.532Z,47.09
2019-05-17T01:24:17.334Z,47.08
2019-05-17T01:25:20.042Z,47.08
2019-05-17T01:26:22.804Z,47.08
2019-05-17T01:27:26.374Z,47.09
2019-05-17T01:28:29.210Z,47.08
2019-05-17T01:29:32.346Z,47.11
2019-05-17T01:30:37.430Z,47.10
2019-05-17T01:31:40.022Z,47.13
2019-05-17T01:32:42.782Z,47.14
2019-05-17T01:33:47.052Z,47.14
2019-05-17T01:34:50.014Z,47.12
2019-05-17T01:35:53.114Z,47.09
2019-05-17T01:36:56.918Z,47.12
2019-05-17T01:38:00.030Z,47.13
2019-05-17T01:39:14.337Z,47.14
2019-05-17T01:40:08.069Z,47.15
2019-05-17T01:41:10.847Z,47.12
2019-05-17T01:42:14.057Z,47.14
2019-05-17T01:43:16.833Z,47.12
2019-05-17T01:44:19.962Z,47.14
2019-05-17T01:45:22.792Z,47.13
2019-05-17T01:46:26.489Z,47.12
2019-05-17T01:47:29.435Z,47.12
2019-05-17T01:48:32.567Z,47.11
2019-05-17T01:49:36.299Z,47.13
2019-05-17T01:50:39.601Z,47.15
2019-05-17T01:51:42.376Z,47.16
2019-05-17T01:52:46.188Z,47.14
2019-05-17T01:53:49.067Z,47.11
2019-05-17T01:54:52.205Z,47.12
2019-05-17T01:55:56.800Z,47.10
2019-05-17T01:56:59.768Z,47.10
2019-05-17T01:58:02.527Z,47.14
2019-05-17T01:59:06.856Z,47.09
2019-05-17T02:00:10.682Z,47.08
2019-05-17T02:01:13.814Z,47.13
2019-05-17T02:02:33.560Z,47.10
2019-05-17T02:03:37.463Z,47.08
2019-05-17T02:04:40.551Z,47.08
2019-05-17T02:05:43.776Z,47.07
2019-05-17T02:06:46.779Z,47.08
2019-05-17T02:07:50.113Z,47.09
2019-05-17T02:08:52.953Z,47.09
2019-05-17T02:09:56.847Z,47.08
2019-05-17T02:10:59.662Z,47.08
2019-05-17T02:12:02.797Z,47.07
2019-05-17T02:13:06.592Z,47.05
2019-05-17T02:14:10.146Z,47.08
2019-05-17T02:15:13.096Z,47.08
2019-05-17T02:16:16.632Z,47.06
2019-05-17T02:17:19.460Z,47.07
2019-05-17T02:18:22.606Z,47.07
2019-05-17T02:19:26.520Z,47.09
2019-05-17T02:20:29.773Z,47.09
2019-05-17T02:21:32.529Z,47.07
2019-05-17T02:22:36.709Z,47.06
2019-05-17T02:23:39.732Z,47.06
2019-05-17T02:24:42.869Z,47.05
2019-05-17T02:25:47.204Z,47.04
2019-05-17T02:26:50.514Z,47.07
2019-05-17T02:27:53.265Z,47.05
2019-05-17T02:28:56.447Z,47.07
2019-05-17T02:30:02.190Z,47.08
2019-05-17T02:31:04.122Z,47.07
2019-05-17T02:32:06.981Z,47.06
2019-05-17T02:33:12.633Z,47.08
2019-05-17T02:34:14.536Z,47.10
2019-05-17T02:35:17.667Z,47.11
2019-05-17T02:36:22.871Z,47.10
2019-05-17T02:37:25.245Z,47.12
2019-05-17T02:38:28.008Z,47.08
2019-05-17T02:39:32.661Z,47.08
2019-05-17T02:40:35.548Z,47.06
2019-05-17T02:41:38.669Z,47.05
2019-05-17T02:42:42.955Z,47.08
2019-05-17T02:43:46.221Z,47.09
2019-05-17T02:44:49.021Z,47.06
2019-05-17T02:45:52.908Z,47.12
2019-05-17T02:46:55.826Z,47.10
2019-05-17T02:47:59.050Z,47.11
2019-05-17T02:49:03.053Z,47.08
2019-05-17T02:50:07.013Z,47.12
2019-05-17T02:51:12.839Z,47.09
2019-05-17T02:52:14.650Z,47.05
2019-05-17T02:53:17.414Z,47.08
2019-05-17T02:54:23.252Z,47.10
2019-05-17T02:55:25.101Z,47.09
2019-05-17T02:56:28.238Z,47.07
2019-05-17T02:57:34.410Z,47.05
2019-05-17T02:58:35.882Z,47.12
2019-05-17T02:59:38.627Z,47.18
2019-05-17T03:00:44.230Z,47.21
2019-05-17T03:01:46.265Z,47.25
2019-05-17T03:02:49.370Z,47.77
2019-05-17T03:03:52.881Z,48.10
2019-05-17T03:04:56.193Z,48.37
2019-05-17T03:05:58.959Z,48.48
2019-05-17T03:07:03.789Z,48.63
2019-05-17T03:08:06.498Z,48.73
2019-05-17T03:09:12.295Z,48.96
2019-05-17T03:10:24.081Z,48.90
2019-05-17T03:11:22.410Z,49.05
2019-05-17T03:12:23.775Z,49.21
2019-05-17T03:13:26.979Z,48.92
2019-05-17T03:14:32.545Z,49.13
2019-05-17T03:15:34.509Z,49.04
2019-05-17T03:16:37.254Z,48.93
2019-05-17T03:17:43.379Z,49.08
2019-05-17T03:18:44.811Z,49.29
2019-05-17T03:19:47.940Z,49.10
2019-05-17T03:20:52.486Z,48.87
2019-05-17T03:21:55.595Z,48.36
2019-05-17T03:22:58.359Z,48.60
2019-05-17T03:24:03.332Z,48.73
2019-05-17T03:25:06.385Z,48.61
2019-05-17T03:26:12.746Z,48.18
2019-05-17T03:27:13.945Z,48.08
2019-05-17T03:28:17.182Z,47.97
2019-05-17T03:29:22.444Z,47.48
2019-05-17T03:30:26.105Z,47.37
2019-05-17T03:31:35.955Z,47.34
2019-05-17T03:32:36.011Z,47.94
2019-05-17T03:33:38.638Z,48.07
2019-05-17T03:34:44.903Z,47.47
2019-05-17T03:35:46.544Z,47.24
2019-05-17T03:36:55.792Z,47.03
2019-05-17T03:37:54.199Z,47.85
2019-05-17T03:38:57.433Z,48.37
2019-05-17T03:40:04.710Z,48.26
2019-05-17T03:41:17.791Z,48.08
2019-05-17T03:42:12.986Z,47.96
2019-05-17T03:43:14.900Z,47.84
2019-05-17T03:44:17.650Z,47.71
2019-05-17T03:45:22.866Z,47.63
2019-05-17T03:46:27.291Z,47.61
2019-05-17T03:47:33.286Z,47.63
2019-05-17T03:48:34.792Z,47.69
2019-05-17T03:49:39.525Z,47.58
2019-05-17T03:50:43.588Z,47.57
2019-05-17T03:51:46.975Z,47.50
2019-05-17T03:52:53.268Z,47.41
2019-05-17T03:53:54.577Z,47.45
2019-05-17T03:54:57.349Z,47.60
2019-05-17T03:56:03.026Z,47.61
2019-05-17T03:57:04.978Z,47.50
2019-05-17T03:58:09.324Z,47.40
2019-05-17T03:59:12.832Z,47.32
2019-05-17T04:00:16.539Z,47.26
2019-05-17T04:01:19.298Z,47.28
2019-05-17T04:02:23.203Z,47.22
2019-05-17T04:03:26.093Z,47.31
2019-05-17T04:04:29.258Z,47.34
2019-05-17T04:05:33.474Z,47.27
2019-05-17T04:06:36.849Z,47.29
2019-05-17T04:07:42.976Z,47.20
2019-05-17T04:08:44.444Z,47.23
2019-05-17T04:09:47.256Z,47.28
2019-05-17T04:10:52.955Z,47.43
2019-05-17T04:11:54.721Z,47.63
2019-05-17T04:12:57.863Z,47.72
2019-05-17T04:14:02.965Z,47.79
2019-05-17T04:15:06.241Z,47.79
2019-05-17T04:16:09.649Z,47.79
2019-05-17T04:17:13.929Z,47.80
2019-05-17T04:18:16.660Z,47.79
2019-05-17T04:19:22.748Z,47.81
2019-05-17T04:20:24.275Z,47.80
2019-05-17T04:21:28.441Z,47.81
2019-05-17T04:22:33.105Z,47.85
2019-05-17T04:23:35.983Z,47.85
2019-05-17T04:24:38.740Z,47.79
2019-05-17T04:25:43.554Z,47.80
2019-05-17T04:26:46.437Z,47.81
2019-05-17T04:27:49.569Z,47.85
2019-05-17T04:28:53.241Z,47.86
2019-05-17T04:29:56.672Z,47.91
2019-05-17T04:31:02.545Z,47.86
2019-05-17T04:32:04.358Z,47.85
2019-05-17T04:33:07.240Z,47.83
2019-05-17T04:34:13.224Z,47.79
2019-05-17T04:35:14.865Z,47.75
2019-05-17T04:36:18.002Z,47.72
2019-05-17T04:37:22.765Z,47.73
2019-05-17T04:38:25.533Z,47.73
2019-05-17T04:39:28.288Z,47.71
2019-05-17T04:40:33.922Z,47.67
2019-05-17T04:41:44.958Z,47.65
2019-05-17T04:42:43.630Z,47.63
2019-05-17T04:43:44.942Z,47.59
2019-05-17T04:44:48.185Z,47.56
2019-05-17T04:45:53.520Z,47.54
2019-05-17T04:46:55.722Z,47.51
2019-05-17T04:47:58.480Z,47.46
2019-05-17T04:49:02.890Z,47.42
2019-05-17T04:50:06.074Z,47.43
2019-05-17T04:51:12.834Z,47.41
2019-05-17T04:52:13.969Z,47.39
2019-05-17T04:53:17.342Z,47.37
2019-05-17T04:54:22.741Z,47.34
2019-05-17T04:55:24.881Z,47.31
2019-05-17T04:56:27.641Z,47.29
2019-05-17T04:57:32.575Z,47.26
2019-05-17T04:58:35.210Z,47.27
2019-05-17T04:59:38.369Z,47.21
2019-05-17T05:00:43.003Z,47.23
2019-05-17T05:01:45.898Z,47.17
2019-05-17T05:02:48.690Z,47.13
2019-05-17T05:03:52.454Z,47.12
2019-05-17T05:04:55.478Z,47.10
2019-05-17T05:05:58.612Z,47.08
2019-05-17T05:07:03.114Z,47.05
2019-05-17T05:08:06.190Z,47.06
2019-05-17T05:09:08.951Z,47.05
2019-05-17T05:10:13.424Z,47.03
2019-05-17T05:11:17.051Z,47.03
2019-05-17T05:12:22.657Z,46.97
2019-05-17T05:13:24.613Z,47.01
2019-05-17T05:14:27.738Z,46.97
2019-05-17T05:15:43.269Z,46.96
2019-05-17T05:16:44.828Z,46.89
2019-05-17T05:17:47.577Z,46.88
2019-05-17T05:18:52.075Z,46.86
2019-05-17T05:19:55.103Z,46.84
2019-05-17T05:20:58.232Z,46.80
2019-05-17T05:22:04.443Z,46.81
2019-05-17T05:23:05.914Z,46.72
2019-05-17T05:24:08.653Z,46.72
2019-05-17T05:25:12.402Z,46.69
2019-05-17T05:26:15.440Z,46.69
2019-05-17T05:27:18.505Z,46.64
2019-05-17T05:28:22.519Z,46.61
2019-05-17T05:29:25.796Z,46.56
2019-05-17T05:30:28.561Z,46.56
2019-05-17T05:31:32.170Z,46.55
2019-05-17T05:32:35.152Z,46.54
2019-05-17T05:33:38.215Z,46.55
2019-05-17T05:34:42.947Z,46.52
2019-05-17T05:35:45.760Z,46.50
2019-05-17T05:36:48.507Z,46.53
2019-05-17T05:37:52.564Z,46.49
2019-05-17T05:38:55.402Z,46.44
2019-05-17T05:39:58.556Z,46.44
2019-05-17T05:41:01.879Z,46.42
2019-05-17T05:42:09.897Z,46.45
2019-05-17T05:43:11.738Z,46.38
2019-05-17T05:44:14.440Z,46.39
2019-05-17T05:45:17.229Z,46.35
2019-05-17T05:46:22.246Z,46.31
2019-05-17T05:47:24.766Z,46.29
2019-05-17T05:48:27.898Z,46.22
2019-05-17T05:49:32.055Z,46.21
2019-05-17T05:50:35.334Z,46.21
2019-05-17T05:51:38.105Z,46.19
2019-05-17T05:52:42.203Z,46.20
2019-05-17T05:53:45.379Z,46.19
2019-05-17T05:54:48.439Z,46.14
2019-05-17T05:55:51.817Z,46.14
2019-05-17T05:56:55.129Z,46.10
2019-05-17T05:57:57.881Z,46.04
2019-05-17T05:59:02.979Z,45.97
2019-05-17T06:00:06.477Z,45.95
2019-05-17T06:01:09.614Z,45.89
2019-05-17T06:02:12.487Z,45.85
2019-05-17T06:03:15.604Z,45.89
2019-05-17T06:04:18.345Z,45.80
2019-05-17T06:05:21.933Z,45.86
2019-05-17T06:06:24.797Z,45.88
2019-05-17T06:07:27.942Z,45.86
2019-05-17T06:08:32.180Z,45.87
2019-05-17T06:09:35.654Z,45.86
2019-05-17T06:10:39.544Z,45.84
2019-05-17T06:11:43.282Z,45.83
2019-05-17T06:12:46.036Z,45.79
2019-05-17T06:13:49.164Z,45.78
2019-05-17T06:14:52.374Z,45.79
2019-05-17T06:15:55.676Z,45.68
2019-05-17T06:16:58.409Z,45.62
2019-05-17T06:18:02.929Z,45.69
2019-05-17T06:19:06.002Z,45.60
2019-05-17T06:20:11.625Z,45.55
2019-05-17T06:21:13.847Z,45.45
2019-05-17T06:22:17.008Z,45.50
2019-05-17T06:23:19.794Z,45.46
2019-05-17T06:24:22.834Z,45.42
2019-05-17T06:25:25.605Z,45.42
2019-05-17T06:26:28.712Z,45.39
2019-05-17T06:27:32.465Z,45.43
2019-05-17T06:28:35.615Z,45.45
2019-05-17T06:29:38.290Z,45.34
2019-05-17T06:30:42.938Z,45.35
2019-05-17T06:31:46.118Z,45.35
2019-05-17T06:32:51.383Z,45.32
2019-05-17T06:33:53.840Z,45.35
2019-05-17T06:34:56.905Z,45.31
2019-05-17T06:36:02.359Z,45.38
2019-05-17T06:37:04.511Z,45.28
2019-05-17T06:38:07.340Z,45.38
2019-05-17T06:39:11.706Z,45.32
2019-05-17T06:40:14.829Z,45.25
2019-05-17T06:41:17.965Z,45.26
2019-05-17T06:42:21.654Z,45.29
2019-05-17T06:43:25.512Z,45.24
2019-05-17T06:44:28.268Z,45.20
2019-05-17T06:45:32.605Z,45.19
2019-05-17T06:46:35.380Z,45.18
2019-05-17T06:47:38.512Z,45.18
2019-05-17T06:48:42.406Z,45.16
2019-05-17T06:50:04.539Z,45.12
2019-05-17T06:51:07.298Z,45.13
2019-05-17T06:52:11.666Z,45.03
2019-05-17T06:53:14.481Z,44.95
2019-05-17T06:54:17.631Z,45.05
2019-05-17T06:55:20.381Z,44.99
2019-05-17T06:56:23.464Z,45.01
2019-05-17T06:57:26.140Z,45.00
2019-05-17T06:58:31.372Z,44.91
2019-05-17T06:59:33.749Z,44.93
2019-05-17T07:00:36.887Z,44.92
2019-05-17T07:01:40.969Z,44.82
2019-05-17T07:02:44.275Z,44.71
2019-05-17T07:03:49.416Z,44.55
2019-05-17T07:04:53.199Z,44.54
2019-05-17T07:05:59.522Z,44.41
2019-05-17T07:07:20.706Z,44.44
2019-05-17T07:08:23.574Z,44.32
2019-05-17T07:09:26.713Z,44.56
2019-05-17T07:10:30.185Z,44.58
2019-05-17T07:11:33.433Z,44.47
2019-05-17T07:12:36.180Z,44.51
2019-05-17T07:13:39.614Z,44.47
2019-05-17T07:14:42.464Z,44.49
2019-05-17T07:15:47.930Z,44.48
2019-05-17T07:16:50.170Z,44.43
2019-05-17T07:17:53.303Z,44.37
2019-05-17T07:18:56.065Z,44.29
2019-05-17T07:19:59.858Z,44.29
2019-05-17T07:21:03.614Z,44.18
2019-05-17T07:22:09.363Z,44.25
2019-05-17T07:23:11.293Z,44.24
2019-05-17T07:24:14.431Z,44.17
2019-05-17T07:25:19.632Z,44.27
2019-05-17T07:26:22.103Z,44.17
2019-05-17T07:27:37.843Z,43.99
2019-05-17T07:28:30.273Z,43.92
2019-05-17T07:29:33.252Z,43.78
2019-05-17T07:30:36.378Z,43.95
2019-05-17T07:31:40.467Z,43.95
2019-05-17T07:32:43.773Z,43.88
2019-05-17T07:33:46.527Z,43.97
2019-05-17T07:34:50.778Z,43.94
2019-05-17T07:35:53.751Z,43.88
2019-05-17T07:36:56.939Z,43.92
2019-05-17T07:37:59.703Z,43.91
2019-05-17T07:39:02.819Z,43.88
2019-05-17T07:40:10.795Z,43.82
2019-05-17T07:41:13.824Z,43.81
2019-05-17T07:42:16.606Z,43.85
2019-05-17T07:43:20.750Z,43.72
2019-05-17T07:44:23.820Z,43.64
2019-05-17T07:45:26.959Z,43.65
2019-05-17T07:46:29.717Z,43.75
2019-05-17T07:47:32.892Z,43.59
2019-05-17T07:48:35.636Z,43.60
2019-05-17T07:49:40.477Z,43.76
2019-05-17T07:50:43.784Z,43.76
2019-05-17T07:51:46.917Z,43.74
2019-05-17T07:52:50.099Z,43.71
2019-05-17T07:53:53.366Z,43.78
2019-05-17T07:54:56.185Z,43.86
2019-05-17T07:55:59.781Z,43.87
2019-05-17T07:57:02.667Z,43.90
2019-05-17T07:58:05.833Z,43.92
2019-05-17T07:59:09.547Z,43.97
2019-05-17T08:00:13.054Z,44.03
2019-05-17T08:01:15.757Z,44.01
2019-05-17T08:02:19.811Z,43.98
2019-05-17T08:03:24.783Z,44.05
2019-05-17T08:04:29.854Z,44.12
2019-05-17T08:05:31.944Z,44.08
2019-05-17T08:06:35.085Z,44.10
2019-05-17T08:07:40.343Z,44.10
2019-05-17T08:08:42.629Z,44.11
2019-05-17T08:09:45.462Z,44.10
2019-05-17T08:10:51.059Z,44.04
2019-05-17T08:11:53.020Z,44.13
2019-05-17T08:12:56.230Z,44.12
2019-05-17T08:13:59.783Z,44.10
2019-05-17T08:15:03.033Z,44.12
2019-05-17T08:16:05.847Z,44.04
2019-05-17T08:17:10.667Z,44.00
2019-05-17T08:18:13.439Z,44.03
2019-05-17T08:19:16.610Z,43.98
2019-05-17T08:20:20.351Z,43.90
2019-05-17T08:21:23.635Z,43.97
2019-05-17T08:22:26.398Z,43.95
2019-05-17T08:23:30.455Z,43.98
2019-05-17T08:24:33.422Z,43.94
2019-05-17T08:25:49.694Z,43.91
2019-05-17T08:26:40.967Z,43.87
2019-05-17T08:27:44.092Z,43.90
2019-05-17T08:28:46.846Z,43.84
2019-05-17T08:29:50.071Z,43.82
2019-05-17T08:30:52.787Z,43.84
2019-05-17T08:31:55.901Z,43.81
2019-05-17T08:33:00.844Z,43.51
2019-05-17T08:34:03.531Z,43.32
2019-05-17T08:35:06.405Z,43.12
2019-05-17T08:36:09.620Z,43.09
2019-05-17T08:37:12.373Z,42.99
2019-05-17T08:38:15.514Z,42.89
2019-05-17T08:39:19.778Z,42.92
2019-05-17T08:40:23.052Z,42.61
2019-05-17T08:41:25.812Z,42.82
2019-05-17T08:42:30.025Z,42.67
2019-05-17T08:43:42.529Z,42.71
2019-05-17T08:44:39.393Z,42.70
2019-05-17T08:45:42.284Z,42.52
2019-05-17T08:46:45.461Z,42.64
2019-05-17T08:47:50.018Z,42.54
2019-05-17T08:48:53.012Z,42.55
2019-05-17T08:49:55.769Z,42.57
2019-05-17T08:51:00.116Z,42.62
2019-05-17T08:52:03.099Z,42.59
2019-05-17T08:53:06.220Z,42.52
2019-05-17T08:54:10.344Z,42.52
2019-05-17T08:55:13.822Z,42.41
2019-05-17T08:56:16.689Z,42.45
2019-05-17T08:57:20.715Z,42.39
2019-05-17T08:58:23.434Z,42.43
2019-05-17T08:59:26.597Z,42.30
2019-05-17T09:00:32.153Z,42.29
2019-05-17T09:01:38.244Z,42.22
2019-05-17T09:02:40.905Z,42.36
2019-05-17T09:03:44.290Z,42.45
2019-05-17T09:04:49.606Z,42.35
2019-05-17T09:05:52.864Z,42.48
2019-05-17T09:06:55.901Z,42.64
2019-05-17T09:08:00.096Z,42.82
2019-05-17T09:09:03.777Z,42.97
2019-05-17T09:10:09.649Z,43.10
2019-05-17T09:11:11.553Z,43.19
2019-05-17T09:12:14.672Z,43.12
2019-05-17T09:13:19.396Z,43.04
2019-05-17T09:14:22.213Z,42.97
2019-05-17T09:15:24.974Z,42.90
2019-05-17T09:16:30.567Z,42.86
2019-05-17T09:17:32.558Z,42.93
2019-05-17T09:18:35.677Z,42.93
2019-05-17T09:19:39.503Z,43.01
2019-05-17T09:20:42.792Z,43.18
2019-05-17T09:21:45.559Z,43.15
2019-05-17T09:22:50.874Z,43.19
2019-05-17T09:23:53.173Z,43.22
2019-05-17T09:24:56.298Z,43.23
2019-05-17T09:25:59.551Z,43.31
2019-05-17T09:27:02.906Z,43.31
2019-05-17T09:28:05.708Z,43.31
2019-05-17T09:29:10.734Z,43.31
2019-05-17T09:30:13.446Z,43.35
2019-05-17T09:31:16.587Z,43.40
2019-05-17T09:32:20.175Z,43.45
2019-05-17T09:33:23.657Z,43.47
2019-05-17T09:34:26.345Z,43.37
2019-05-17T09:35:30.079Z,43.40
2019-05-17T09:36:32.962Z,43.36
2019-05-17T09:37:36.121Z,43.39
2019-05-17T09:38:40.433Z,43.41
2019-05-17T09:39:43.681Z,43.47
2019-05-17T09:40:46.436Z,43.51
2019-05-17T09:41:50.263Z,43.51
2019-05-17T09:42:53.251Z,43.50
2019-05-17T09:44:09.580Z,43.52
2019-05-17T09:45:00.844Z,43.50
2019-05-17T09:46:04.076Z,43.50
2019-05-17T09:47:06.832Z,43.52
2019-05-17T09:48:10.575Z,43.51
2019-05-17T09:49:13.493Z,43.52
2019-05-17T09:50:16.997Z,43.52
2019-05-17T09:51:19.767Z,43.51
2019-05-17T09:52:22.889Z,43.50
2019-05-17T09:53:25.720Z,43.51
2019-05-17T09:54:41.407Z,43.52
2019-05-17T09:55:33.343Z,43.50
2019-05-17T09:56:36.473Z,43.49
2019-05-17T09:57:40.819Z,43.42
2019-05-17T09:58:44.413Z,43.37
2019-05-17T09:59:49.478Z,43.38
2019-05-17T10:00:51.997Z,43.31
2019-05-17T10:01:54.764Z,43.30
2019-05-17T10:02:59.896Z,43.21
2019-05-17T10:04:02.395Z,43.17
2019-05-17T10:05:06.640Z,43.14
2019-05-17T10:06:09.774Z,43.16
2019-05-17T10:07:12.940Z,43.07
2019-05-17T10:08:15.681Z,43.05
2019-05-17T10:09:19.582Z,43.06
2019-05-17T10:10:22.449Z,43.06
2019-05-17T10:11:25.542Z,43.08
2019-05-17T10:12:28.308Z,43.13
2019-05-17T10:13:31.523Z,43.03
2019-05-17T10:14:34.284Z,43.09
2019-05-17T10:15:37.435Z,43.07
2019-05-17T10:16:40.181Z,43.09
2019-05-17T10:17:43.403Z,43.06
2019-05-17T10:18:46.229Z,43.11
2019-05-17T10:19:49.368Z,43.14
2019-05-17T10:20:52.178Z,43.18
2019-05-17T10:21:55.324Z,43.18
2019-05-17T10:22:59.576Z,43.19
2019-05-17T10:24:02.912Z,43.23
2019-05-17T10:25:06.333Z,43.26
2019-05-17T10:26:10.236Z,43.23
2019-05-17T10:27:14.696Z,43.23
2019-05-17T10:28:20.344Z,43.32
2019-05-17T10:29:22.363Z,43.39
2019-05-17T10:30:25.535Z,43.49
2019-05-17T10:31:30.265Z,43.49
2019-05-17T10:32:33.111Z,43.60
2019-05-17T10:33:35.866Z,43.59
2019-05-17T10:34:40.128Z,43.57
2019-05-17T10:35:43.152Z,43.63
2019-05-17T10:36:46.258Z,43.55
2019-05-17T10:37:50.616Z,43.55
2019-05-17T10:38:53.867Z,43.54
2019-05-17T10:39:56.630Z,43.45
2019-05-17T10:40:59.780Z,43.50
2019-05-17T10:42:02.606Z,43.46
2019-05-17T10:43:05.738Z,43.47
2019-05-17T10:44:09.428Z,43.50
2019-05-17T10:45:12.624Z,43.51
2019-05-17T10:46:15.383Z,43.56
2019-05-17T10:47:19.572Z,43.55
2019-05-17T10:48:22.402Z,43.57
2019-05-17T10:49:25.541Z,43.53
2019-05-17T10:50:29.804Z,43.54
2019-05-17T10:51:33.195Z,43.51
2019-05-17T10:52:36.036Z,43.49
2019-05-17T10:53:40.276Z,43.50
2019-05-17T10:54:43.060Z,43.50
2019-05-17T10:55:46.261Z,43.49
2019-05-17T10:56:50.250Z,43.48
2019-05-17T10:57:53.596Z,43.46
2019-05-17T10:58:56.294Z,43.39
2019-05-17T10:59:59.489Z,43.38
2019-05-17T11:01:02.295Z,43.35
2019-05-17T11:02:05.414Z,43.45
2019-05-17T11:03:09.764Z,43.45
2019-05-17T11:04:15.193Z,43.47
2019-05-17T11:05:20.116Z,43.46
2019-05-17T11:06:24.076Z,43.46
2019-05-17T11:07:28.593Z,43.46
2019-05-17T11:08:31.681Z,43.42
2019-05-17T11:09:34.438Z,43.45
2019-05-17T11:10:39.278Z,43.47
2019-05-17T11:11:41.977Z,43.49
2019-05-17T11:12:45.120Z,43.47
2019-05-17T11:13:47.851Z,43.43
2019-05-17T11:15:09.365Z,43.43
2019-05-17T11:15:55.685Z,43.43
2019-05-17T11:17:00.639Z,43.34
2019-05-17T11:18:03.389Z,43.32
2019-05-17T11:19:08.744Z,43.30
2019-05-17T11:20:11.220Z,43.32
2019-05-17T11:21:14.356Z,43.29
2019-05-17T11:22:17.125Z,43.29
2019-05-17T11:23:20.257Z,43.29
2019-05-17T11:24:23.119Z,43.32
2019-05-17T11:25:26.124Z,43.30
2019-05-17T11:26:29.338Z,43.29
2019-05-17T11:27:32.451Z,43.32
2019-05-17T11:28:35.303Z,43.33
2019-05-17T11:29:38.499Z,43.35
2019-05-17T11:30:41.298Z,43.39
2019-05-17T11:31:44.361Z,43.51
2019-05-17T11:32:47.132Z,43.54
2019-05-17T11:33:50.284Z,43.54
2019-05-17T11:34:53.098Z,43.53
2019-05-17T11:35:56.229Z,43.55
2019-05-17T11:36:59.001Z,43.53
2019-05-17T11:38:02.120Z,43.51
2019-05-17T11:39:06.080Z,43.50
2019-05-17T11:40:09.637Z,43.51
2019-05-17T11:41:21.300Z,43.51
2019-05-17T11:42:17.172Z,43.51
2019-05-17T11:43:20.066Z,43.54
2019-05-17T11:44:23.310Z,43.55
2019-05-17T11:45:29.036Z,43.56
2019-05-17T11:46:36.057Z,43.54
2019-05-17T11:47:35.369Z,43.60
2019-05-17T11:48:38.509Z,43.61
2019-05-17T11:49:41.375Z,43.61
2019-05-17T11:50:44.541Z,43.59
2019-05-17T11:51:47.303Z,43.58
2019-05-17T11:52:50.431Z,43.57
2019-05-17T11:53:53.156Z,43.58
2019-05-17T11:54:56.292Z,43.56
2019-05-17T11:55:59.060Z,43.56
2019-05-17T11:57:02.227Z,43.51
2019-05-17T11:58:05.016Z,43.52
2019-05-17T11:59:08.133Z,43.53
2019-05-17T12:00:11.372Z,43.52
2019-05-17T12:01:14.530Z,43.52
2019-05-17T12:02:17.291Z,43.53
2019-05-17T12:03:20.438Z,43.51
2019-05-17T12:04:23.202Z,43.52
2019-05-17T12:05:26.399Z,43.47
2019-05-17T12:06:29.233Z,43.48
2019-05-17T12:07:32.384Z,43.48
2019-05-17T12:08:35.144Z,43.49
2019-05-17T12:09:38.308Z,43.51
2019-05-17T12:10:41.135Z,43.53
2019-05-17T12:11:44.333Z,43.53
2019-05-17T12:12:47.091Z,43.52
2019-05-17T12:13:50.214Z,43.54
2019-05-17T12:14:52.973Z,43.55
2019-05-17T12:15:56.106Z,43.53
2019-05-17T12:16:58.905Z,43.55
2019-05-17T12:18:01.966Z,43.56
2019-05-17T12:19:04.833Z,43.58
2019-05-17T12:20:08.071Z,43.57
2019-05-17T12:21:10.874Z,43.58
2019-05-17T12:22:14.002Z,43.60
2019-05-17T12:23:16.753Z,43.61
2019-05-17T12:24:19.801Z,43.61
2019-05-17T12:25:22.671Z,43.60
2019-05-17T12:26:25.845Z,43.60
2019-05-17T12:27:28.703Z,43.65
2019-05-17T12:28:31.845Z,43.64
2019-05-17T12:29:34.597Z,43.65
2019-05-17T12:30:37.805Z,43.70
2019-05-17T12:31:40.559Z,43.68
2019-05-17T12:32:43.842Z,43.71
2019-05-17T12:33:46.607Z,43.72
2019-05-17T12:34:49.795Z,43.70
2019-05-17T12:35:52.481Z,43.71
2019-05-17T12:36:55.662Z,43.70
2019-05-17T12:37:58.666Z,43.70
2019-05-17T12:39:02.851Z,43.69
2019-05-17T12:40:06.011Z,43.69
2019-05-17T12:41:09.085Z,43.70
2019-05-17T12:42:12.016Z,43.69
2019-05-17T12:43:15.242Z,43.71
2019-05-17T12:44:18.006Z,43.73
2019-05-17T12:45:21.143Z,43.76
2019-05-17T12:46:23.896Z,43.77
2019-05-17T12:47:27.089Z,43.77
2019-05-17T12:48:29.950Z,43.79
2019-05-17T12:49:33.139Z,43.79
2019-05-17T12:50:35.913Z,43.80
2019-05-17T12:51:39.036Z,43.83
2019-05-17T12:52:41.801Z,43.82
2019-05-17T12:53:44.981Z,43.81
2019-05-17T12:54:47.727Z,43.78
2019-05-17T12:55:50.871Z,43.80
2019-05-17T12:56:53.622Z,43.80
2019-05-17T12:57:56.743Z,43.80
2019-05-17T12:59:01.270Z,43.80
2019-05-17T13:00:05.868Z,43.83
2019-05-17T13:01:08.562Z,43.82
2019-05-17T13:02:12.422Z,43.81
2019-05-17T13:03:15.448Z,43.83
2019-05-17T13:04:18.623Z,43.81
2019-05-17T13:05:21.409Z,43.86
2019-05-17T13:06:24.655Z,43.84
2019-05-17T13:07:27.404Z,43.85
2019-05-17T13:08:30.629Z,43.88
2019-05-17T13:09:33.441Z,43.87
2019-05-17T13:10:36.559Z,43.87
2019-05-17T13:11:39.386Z,43.86
2019-05-17T13:12:42.527Z,43.87
2019-05-17T13:13:45.284Z,43.88
2019-05-17T13:14:48.448Z,43.88
2019-05-17T13:15:51.218Z,43.88
2019-05-17T13:16:54.338Z,43.85
2019-05-17T13:17:57.094Z,43.85
2019-05-17T13:19:00.257Z,43.82
2019-05-17T13:20:04.732Z,43.82
2019-05-17T13:21:07.944Z,43.81
2019-05-17T13:22:10.716Z,43.78
2019-05-17T13:23:13.973Z,43.77
2019-05-17T13:24:16.739Z,43.77
2019-05-17T13:25:19.891Z,43.78
2019-05-17T13:26:22.784Z,43.75
2019-05-17T13:27:26.096Z,43.74
2019-05-17T13:28:28.787Z,43.72
2019-05-17T13:29:33.482Z,43.75
2019-05-17T13:30:36.427Z,43.74
2019-05-17T13:31:39.638Z,43.77
2019-05-17T13:32:42.415Z,43.75
2019-05-17T13:33:45.618Z,43.79
2019-05-17T13:34:48.376Z,43.79
2019-05-17T13:35:51.769Z,43.75
2019-05-17T13:36:54.442Z,43.76
2019-05-17T13:37:57.659Z,43.80